Time;durP1;ratioP1;P1;durP2;ratioP2;P2;SDS_P1;SDS_P2;PMS_P1;PMS_P2;Temp;Humidity;BMP_temperature;BMP_pressure;BME280_temperature;BME280_humidity;BME280_pressure;Samples;Min_cycle;Max_cycle;Signal;HPM_P1;HPM_P2
2023/01/04 00:00:13;;;;;;;66.77;4.80;;;8.70;99.90;;;;;;4910994;29;20200;-85
2023/01/04 00:02:39;;;;;;;78.10;20.08;;;8.80;99.90;;;;;;4910043;29;20185;-85
2023/01/04 00:05:05;;;;;;;68.60;10.20;;;8.80;99.90;;;;;;4926489;29;20177;-85
2023/01/04 00:07:31;;;;;;;66.60;5.10;;;8.80;99.90;;;;;;4909091;29;20414;-85
2023/01/04 00:09:57;;;;;;;67.70;5.70;;;8.90;99.90;;;;;;4926451;29;20219;-85
2023/01/04 00:12:23;;;;;;;65.97;6.03;;;8.90;99.90;;;;;;4925153;29;20637;-85
2023/01/04 00:14:48;;;;;;;66.67;5.53;;;9.00;99.90;;;;;;4924688;29;20516;-85
2023/01/04 00:17:14;;;;;;;66.20;4.60;;;9.00;99.90;;;;;;4926230;29;20433;-85
2023/01/04 00:19:40;;;;;;;76.30;6.40;;;9.00;99.90;;;;;;4925135;29;20197;-85
2023/01/04 00:22:05;;;;;;;64.57;4.80;;;9.00;99.90;;;;;;4922243;29;20204;-85
2023/01/04 00:24:31;;;;;;;68.90;4.83;;;9.00;99.90;;;;;;4932082;29;20177;-85
2023/01/04 00:26:57;;;;;;;69.80;5.17;;;9.00;99.90;;;;;;4908278;29;20229;-85
2023/01/04 00:29:22;;;;;;;74.10;5.03;;;9.00;99.90;;;;;;4924271;29;20558;-85
2023/01/04 00:31:48;;;;;;;66.63;6.27;;;9.10;99.90;;;;;;4924349;29;20209;-85
2023/01/04 00:34:15;;;;;;;67.30;5.10;;;9.10;99.90;;;;;;4923929;29;20202;-86
2023/01/04 00:36:41;;;;;;;69.07;5.43;;;9.10;99.90;;;;;;4923546;29;20177;-85
2023/01/04 00:39:11;;;;;;;65.90;5.67;;;9.10;99.90;;;;;;4906381;29;20177;-85
2023/01/04 00:41:48;;;;;;;72.40;6.10;;;9.10;99.90;;;;;;4922814;29;20669;-85
2023/01/04 00:44:15;;;;;;;65.25;5.57;;;9.10;99.90;;;;;;4923008;29;20212;-85
2023/01/04 00:46:42;;;;;;;66.95;5.28;;;9.20;99.90;;;;;;4923420;29;20180;-85
2023/01/04 00:49:10;;;;;;;67.18;5.25;;;9.10;99.90;;;;;;4924217;29;20185;-85
2023/01/04 00:51:37;;;;;;;65.40;5.18;;;9.10;99.90;;;;;;4924435;29;20165;-85
2023/01/04 00:54:06;;;;;;;68.15;5.68;;;9.10;99.90;;;;;;4907142;29;20169;-85
2023/01/04 00:56:33;;;;;;;67.65;5.20;;;9.10;99.90;;;;;;4905380;29;20261;-85
2023/01/04 00:59:00;;;;;;;66.25;5.70;;;9.10;99.90;;;;;;4921302;29;20172;-85
2023/01/04 01:01:28;;;;;;;71.03;4.47;;;9.10;99.90;;;;;;4922354;29;20192;-85
2023/01/04 01:03:55;;;;;;;68.03;4.93;;;9.10;99.90;;;;;;4923463;29;20161;-85
2023/01/04 01:06:21;;;;;;;66.57;5.70;;;9.10;99.90;;;;;;4922241;29;20174;-85
2023/01/04 01:08:47;;;;;;;67.25;6.15;;;9.10;99.90;;;;;;4904535;29;20225;-85
2023/01/04 01:11:13;;;;;;;73.68;5.40;;;9.10;99.90;;;;;;4904054;29;20541;-85
2023/01/04 01:13:39;;;;;;;65.07;4.67;;;9.20;99.90;;;;;;4921969;29;20168;-85
2023/01/04 01:16:07;;;;;;;68.00;6.67;;;9.10;99.90;;;;;;4923137;29;20284;-85
2023/01/04 01:18:35;;;;;;;68.93;9.00;;;9.10;99.90;;;;;;4921264;29;20180;-85
2023/01/04 01:21:08;;;;;;;69.20;8.43;;;9.10;99.90;;;;;;4919805;29;20225;-85
2023/01/04 01:23:34;;;;;;;72.97;10.48;;;9.00;99.90;;;;;;4902007;29;20220;-85
2023/01/04 01:26:01;;;;;;;71.63;12.20;;;9.00;99.90;;;;;;4919006;29;20215;-85
2023/01/04 01:28:27;;;;;;;84.10;25.55;;;8.90;99.90;;;;;;4919330;29;20411;-85
2023/01/04 01:30:53;;;;;;;73.65;24.65;;;9.00;99.90;;;;;;4919275;29;20197;-85
2023/01/04 01:33:18;;;;;;;74.00;21.60;;;9.00;99.90;;;;;;4919616;29;20184;-85
2023/01/04 01:35:44;;;;;;;72.40;26.60;;;9.00;99.90;;;;;;4918919;29;20261;-85
2023/01/04 01:38:13;;;;;;;71.30;20.47;;;9.00;99.90;;;;;;4918963;29;20185;-85
2023/01/04 01:40:42;;;;;;;72.80;22.30;;;9.10;99.90;;;;;;4901940;29;20303;-86
2023/01/04 01:43:20;;;;;;;71.28;24.85;;;9.10;99.90;;;;;;4919814;29;20228;-85
2023/01/04 01:45:55;;;;;;;73.22;21.17;;;9.20;99.90;;;;;;4919263;29;20150;-85
2023/01/04 01:48:27;;;;;;;76.25;23.25;;;9.20;99.90;;;;;;4919198;29;20173;-85
2023/01/04 01:50:57;;;;;;;71.78;20.90;;;9.20;99.90;;;;;;4920648;29;20193;-85
2023/01/04 01:55:58;;;;;;;72.80;24.75;;;9.20;99.90;;;;;;4917395;29;20235;-86
2023/01/04 01:58:32;;;;;;;73.90;21.65;;;9.20;99.90;;;;;;4918483;29;20169;-86
2023/01/04 02:00:58;;;;;;;71.47;18.85;;;9.10;99.90;;;;;;4904091;29;20209;-86
2023/01/04 02:03:30;;;;;;;70.50;20.70;;;9.10;99.90;;;;;;4899263;29;20232;-86
2023/01/04 02:05:58;;;;;;;72.47;21.45;;;9.10;99.90;;;;;;4900113;29;20759;-87
2023/01/04 02:08:25;;;;;;;76.95;18.80;;;9.20;99.90;;;;;;4900237;29;20216;-87
2023/01/04 02:10:53;;;;;;;71.05;15.60;;;9.20;99.90;;;;;;4899559;29;20181;-87
2023/01/04 02:13:22;;;;;;;70.70;18.85;;;9.30;99.90;;;;;;4882702;29;20174;-86
2023/01/04 02:16:23;;;;;;;75.43;18.65;;;9.30;99.90;;;;;;4882319;29;20221;-87
2023/01/04 02:19:14;;;;;;;71.05;19.88;;;9.30;99.90;;;;;;4899381;29;20161;-86
2023/01/04 02:22:04;;;;;;;78.45;27.05;;;9.40;99.90;;;;;;4899005;29;20762;-86
2023/01/04 02:25:12;;;;;;;72.93;18.27;;;9.40;99.90;;;;;;4882221;29;20658;-86
2023/01/04 02:28:17;;;;;;;74.22;19.40;;;9.40;99.90;;;;;;4899603;29;20154;-86
2023/01/04 02:30:43;;;;;;;69.72;19.50;;;9.40;99.90;;;;;;4898750;29;20186;-86
2023/01/04 02:33:35;;;;;;;78.00;21.83;;;9.40;99.90;;;;;;4899418;29;20177;-86
2023/01/04 02:36:26;;;;;;;82.07;40.75;;;9.50;99.90;;;;;;4884243;29;20162;-87
2023/01/04 02:38:54;;;;;;;74.88;18.77;;;9.50;99.90;;;;;;4899245;29;20173;-86
2023/01/04 02:41:24;;;;;;;70.47;14.35;;;9.50;99.90;;;;;;4898787;29;20241;-86
2023/01/04 02:46:57;;;;;;;68.32;15.38;;;9.40;99.90;;;;;;4899138;29;20165;-86
2023/01/04 02:52:07;;;;;;;73.68;19.38;;;9.40;99.90;;;;;;4899545;29;20165;-86
2023/01/04 02:54:33;;;;;;;70.60;13.00;;;9.50;99.90;;;;;;4881950;29;20198;-86
2023/01/04 02:57:16;;;;;;;67.63;12.02;;;9.50;99.90;;;;;;4898842;29;20217;-87
2023/01/04 03:00:14;;;;;;;69.75;14.57;;;9.50;99.90;;;;;;4899170;29;20665;-87
2023/01/04 03:06:21;;;;;;;71.35;19.02;;;9.40;99.90;;;;;;4899270;29;20242;-86
2023/01/04 03:09:12;;;;;;;69.90;21.50;;;9.40;99.90;;;;;;4898996;29;20159;-87
2023/01/04 03:14:34;;;;;;;68.40;18.45;;;9.40;99.90;;;;;;4898534;29;20210;-88
2023/01/04 03:17:10;;;;;;;70.68;19.52;;;9.40;99.90;;;;;;4898551;29;20158;-87
2023/01/04 03:19:56;;;;;;;69.85;21.08;;;9.40;99.90;;;;;;4881719;29;20590;-87
2023/01/04 03:36:46;;;;;;;69.45;20.80;;;9.50;99.90;;;;;;4899487;29;20206;-87
2023/01/04 03:49:22;;;;;;;68.25;16.80;;;9.50;99.90;;;;;;4845715;29;20152;-86
2023/01/04 03:51:53;;;;;;;67.82;16.58;;;9.50;99.90;;;;;;4900091;29;20684;-86
2023/01/04 03:54:28;;;;;;;68.50;17.20;;;9.50;99.90;;;;;;4902550;29;20209;-86
2023/01/04 03:56:55;;;;;;;68.65;15.27;;;9.50;99.90;;;;;;4901858;29;20161;-87
2023/01/04 03:59:23;;;;;;;72.22;26.50;;;9.50;99.90;;;;;;4885119;29;20174;-87
2023/01/04 04:01:49;;;;;;;69.38;18.40;;;9.50;99.90;;;;;;4902248;29;20665;-87
2023/01/04 04:09:43;;;;;;;66.38;10.95;;;9.40;99.90;;;;;;4901759;29;20225;-86
2023/01/04 04:12:09;;;;;;;66.47;10.90;;;9.50;99.90;;;;;;4884740;29;20673;-87
2023/01/04 04:14:35;;;;;;;66.37;11.03;;;9.50;99.90;;;;;;4901379;29;20201;-86
2023/01/04 04:17:00;;;;;;;67.47;12.77;;;9.50;99.90;;;;;;4901526;29;20566;-86
2023/01/04 04:19:26;;;;;;;66.50;12.33;;;9.40;99.90;;;;;;4901380;29;20433;-86
2023/01/04 04:21:52;;;;;;;65.97;11.17;;;9.40;99.90;;;;;;4901491;29;20221;-86
2023/01/04 04:24:20;;;;;;;67.43;11.70;;;9.40;99.90;;;;;;4901662;29;20166;-86
2023/01/04 04:26:45;;;;;;;66.82;12.32;;;9.40;99.90;;;;;;4901280;29;20162;-86
2023/01/04 04:29:11;;;;;;;66.70;13.83;;;9.40;99.90;;;;;;4901206;29;20507;-86
2023/01/04 04:31:37;;;;;;;68.47;18.13;;;9.40;99.90;;;;;;4901195;29;20190;-86
2023/01/04 04:34:03;;;;;;;75.63;25.23;;;9.30;99.90;;;;;;4901215;29;20166;-86
2023/01/04 04:36:28;;;;;;;72.40;27.50;;;9.30;99.90;;;;;;4901367;29;20249;-86
2023/01/04 04:38:54;;;;;;;71.17;20.43;;;9.30;99.90;;;;;;4901109;29;20177;-86
2023/01/04 04:41:38;;;;;;;69.07;18.17;;;9.40;99.90;;;;;;4957922;23;20225;-85
2023/01/04 04:44:07;;;;;;;71.32;23.80;;;9.30;99.90;;;;;;4889487;29;20178;-86
2023/01/04 04:46:33;;;;;;;70.32;23.70;;;9.30;99.90;;;;;;4889790;29;20209;-85
2023/01/04 04:48:59;;;;;;;70.50;24.33;;;9.30;99.90;;;;;;4905804;29;20166;-85
2023/01/04 04:51:24;;;;;;;77.97;32.53;;;9.30;99.90;;;;;;4906006;29;20194;-86
2023/01/04 04:53:50;;;;;;;70.70;24.07;;;9.40;99.90;;;;;;4905626;29;20634;-85
2023/01/04 04:56:16;;;;;;;69.57;20.70;;;9.40;99.90;;;;;;4888900;29;20740;-86
2023/01/04 04:58:41;;;;;;;69.90;16.47;;;9.40;99.90;;;;;;4905411;29;20251;-86
2023/01/04 05:01:07;;;;;;;67.57;15.47;;;9.40;99.90;;;;;;4905434;29;20281;-85
2023/01/04 05:03:33;;;;;;;69.00;18.80;;;9.40;99.90;;;;;;4905507;29;20161;-86
2023/01/04 05:05:59;;;;;;;67.87;16.07;;;9.50;99.90;;;;;;4905432;29;20702;-85
2023/01/04 05:08:24;;;;;;;69.10;14.53;;;9.50;99.90;;;;;;4905587;29;20221;-85
2023/01/04 05:10:50;;;;;;;66.17;9.73;;;9.50;99.90;;;;;;4889108;29;20434;-85
2023/01/04 05:13:16;;;;;;;66.97;12.80;;;9.50;99.90;;;;;;4905538;29;20481;-85
2023/01/04 05:15:51;;;;;;;66.87;11.83;;;9.50;99.90;;;;;;4906044;29;20185;-85
2023/01/04 05:18:19;;;;;;;66.38;10.65;;;9.60;99.90;;;;;;4906048;29;20146;-85
2023/01/04 05:20:45;;;;;;;64.47;6.47;;;9.60;99.90;;;;;;4887892;29;20209;-85
2023/01/04 05:23:13;;;;;;;65.68;10.30;;;9.60;99.90;;;;;;4888660;29;20180;-85
2023/01/04 05:25:39;;;;;;;73.78;21.20;;;9.60;99.90;;;;;;4888360;29;20170;-86
2023/01/04 05:28:05;;;;;;;65.30;8.10;;;9.60;99.90;;;;;;4905861;29;20168;-85
2023/01/04 05:30:49;;;;;;;64.78;6.75;;;9.70;99.90;;;;;;4888213;29;20189;-85
2023/01/04 05:33:27;;;;;;;65.15;6.95;;;9.70;99.90;;;;;;4904956;29;20241;-86
2023/01/04 05:35:54;;;;;;;65.65;10.05;;;9.70;99.90;;;;;;4905109;29;20161;-85
2023/01/04 05:38:21;;;;;;;65.43;8.10;;;9.70;99.90;;;;;;4888321;29;20702;-86
2023/01/04 05:40:47;;;;;;;64.45;6.85;;;9.70;99.90;;;;;;4904249;29;20206;-85
2023/01/04 05:43:14;;;;;;;64.50;8.23;;;9.70;99.90;;;;;;4905600;29;20657;-86
2023/01/04 05:45:46;;;;;;;66.75;8.63;;;9.80;99.90;;;;;;4888389;29;20549;-86
2023/01/04 05:48:11;;;;;;;67.03;10.88;;;9.80;99.90;;;;;;4905705;29;20162;-86
2023/01/04 05:50:37;;;;;;;65.40;10.20;;;9.80;99.90;;;;;;4905045;29;20185;-86
2023/01/04 05:53:06;;;;;;;65.83;10.53;;;9.80;99.90;;;;;;4905118;29;20169;-86
2023/01/04 05:55:35;;;;;;;65.75;8.45;;;9.90;99.90;;;;;;4904984;29;20201;-85
2023/01/04 05:58:01;;;;;;;66.47;12.10;;;9.90;99.90;;;;;;4888068;29;20228;-86
2023/01/04 06:00:27;;;;;;;66.88;12.23;;;9.90;99.90;;;;;;4904949;29;20249;-86
2023/01/04 06:02:54;;;;;;;66.23;11.20;;;9.90;99.90;;;;;;4904618;29;20225;-86
2023/01/04 06:05:21;;;;;;;65.47;9.85;;;9.90;99.90;;;;;;4887359;29;20984;-86
2023/01/04 06:07:46;;;;;;;66.75;13.77;;;9.90;99.90;;;;;;4905837;29;20169;-86
2023/01/04 06:10:12;;;;;;;64.73;6.70;;;9.90;99.90;;;;;;4887577;29;20190;-85
2023/01/04 06:12:39;;;;;;;65.87;9.73;;;9.90;99.90;;;;;;4904691;29;20534;-86
2023/01/04 06:15:06;;;;;;;65.57;10.32;;;9.90;99.90;;;;;;4887591;29;20177;-86
2023/01/04 06:17:33;;;;;;;65.55;9.85;;;9.90;99.90;;;;;;4887738;29;20245;-85
2023/01/04 06:20:03;;;;;;;65.97;10.57;;;9.90;99.90;;;;;;4888044;29;20200;-86
2023/01/04 06:22:29;;;;;;;65.00;7.93;;;9.90;99.90;;;;;;4887549;29;20226;-86
2023/01/04 06:24:55;;;;;;;64.80;7.43;;;9.90;99.90;;;;;;4903992;29;20186;-85
2023/01/04 06:27:41;;;;;;;67.27;7.27;;;9.90;99.90;;;;;;4904546;29;20253;-85
2023/01/04 06:30:07;;;;;;;65.18;7.53;;;9.90;99.90;;;;;;4904857;29;20666;-85
2023/01/04 06:32:36;;;;;;;65.57;8.35;;;9.90;99.90;;;;;;4889757;29;20178;-85
2023/01/04 06:35:02;;;;;;;65.47;8.40;;;10.00;99.90;;;;;;4904390;29;20181;-86
2023/01/04 06:37:27;;;;;;;64.73;8.17;;;10.00;99.90;;;;;;4887451;29;20173;-86
2023/01/04 06:39:53;;;;;;;64.87;7.27;;;10.00;99.90;;;;;;4903626;29;20205;-85
2023/01/04 06:45:06;;;;;;;64.75;7.05;;;10.00;99.90;;;;;;4904215;29;20177;-86
2023/01/04 06:47:32;;;;;;;64.63;7.15;;;10.00;99.90;;;;;;4904318;29;20176;-86
2023/01/04 06:49:58;;;;;;;63.90;5.37;;;10.10;99.90;;;;;;4904656;29;20721;-85
2023/01/04 06:52:23;;;;;;;66.27;9.30;;;10.10;99.90;;;;;;4903666;29;20685;-85
2023/01/04 06:54:49;;;;;;;71.37;15.37;;;10.10;99.90;;;;;;4904685;29;20177;-86
2023/01/04 06:57:15;;;;;;;65.43;9.20;;;10.10;99.90;;;;;;4903653;29;20170;-85
2023/01/04 06:59:40;;;;;;;69.70;11.07;;;10.20;99.90;;;;;;4887541;29;20193;-86
2023/01/04 07:02:06;;;;;;;63.97;5.77;;;10.20;99.90;;;;;;4904386;29;20190;-85
2023/01/04 07:04:32;;;;;;;64.50;6.10;;;10.20;99.90;;;;;;4904319;29;20229;-86
2023/01/04 07:06:57;;;;;;;66.73;12.30;;;10.20;99.90;;;;;;4887435;29;20269;-84
2023/01/04 07:09:23;;;;;;;64.67;7.40;;;10.20;99.90;;;;;;4886086;29;20208;-85
2023/01/04 07:11:49;;;;;;;66.47;10.90;;;10.30;99.90;;;;;;4903620;29;20162;-85
2023/01/04 07:14:14;;;;;;;65.50;6.43;;;10.30;99.90;;;;;;4886550;29;20173;-84
2023/01/04 07:16:40;;;;;;;65.40;5.47;;;10.30;99.90;;;;;;4888492;29;20267;-85
2023/01/04 07:19:07;;;;;;;66.27;7.00;;;10.30;99.90;;;;;;4906554;29;20249;-85
2023/01/04 07:21:33;;;;;;;67.45;9.10;;;10.30;99.90;;;;;;4906529;29;20681;-85
2023/01/04 07:23:59;;;;;;;66.27;6.40;;;10.30;99.90;;;;;;4907702;29;20177;-85
2023/01/04 07:26:24;;;;;;;65.57;6.43;;;10.30;99.90;;;;;;4907651;29;20174;-86
2023/01/04 07:31:34;;;;;;;65.65;6.78;;;10.30;99.90;;;;;;4906906;29;20208;-85
2023/01/04 07:34:00;;;;;;;66.70;7.93;;;10.30;99.90;;;;;;4907125;29;20166;-85
2023/01/04 07:36:25;;;;;;;65.77;7.70;;;10.40;99.90;;;;;;4907321;29;20541;-85
2023/01/04 07:38:51;;;;;;;65.13;7.90;;;10.40;99.90;;;;;;4907188;29;20677;-85
2023/01/04 07:41:17;;;;;;;65.10;7.10;;;10.40;99.90;;;;;;4890612;29;20220;-85
2023/01/04 07:43:42;;;;;;;67.13;8.90;;;10.40;99.90;;;;;;4907027;29;20178;-85
2023/01/04 07:46:08;;;;;;;66.07;10.20;;;10.50;99.90;;;;;;4907235;29;20170;-85
2023/01/04 07:48:34;;;;;;;65.30;9.47;;;10.50;99.90;;;;;;4907014;29;20205;-85
2023/01/04 07:50:59;;;;;;;66.30;10.40;;;10.50;99.90;;;;;;4890137;29;20186;-85
2023/01/04 07:53:25;;;;;;;66.77;12.10;;;10.50;99.90;;;;;;4906854;29;20165;-85
2023/01/04 07:55:58;;;;;;;65.53;8.07;;;10.50;99.90;;;;;;4906860;29;20174;-85
2023/01/04 07:58:24;;;;;;;65.25;7.40;;;10.50;99.90;;;;;;4907198;29;20166;-85
2023/01/04 08:00:50;;;;;;;67.75;9.50;;;10.60;99.90;;;;;;4906376;29;20269;-85
2023/01/04 08:03:16;;;;;;;66.17;9.90;;;10.60;99.90;;;;;;4889896;29;20181;-85
2023/01/04 08:05:41;;;;;;;67.47;9.03;;;10.70;99.90;;;;;;4909121;29;20166;-85
2023/01/04 08:08:07;;;;;;;66.93;10.70;;;10.70;99.90;;;;;;4907310;29;20574;-85
2023/01/04 08:10:33;;;;;;;66.40;10.35;;;10.70;99.90;;;;;;4889513;29;20212;-85
2023/01/04 08:12:59;;;;;;;67.27;11.70;;;10.70;99.90;;;;;;4905652;29;20166;-85
2023/01/04 08:15:28;;;;;;;72.93;10.93;;;10.70;99.90;;;;;;4905655;29;20594;-85
2023/01/04 08:17:55;;;;;;;68.65;12.43;;;10.70;99.90;;;;;;4906172;29;20170;-86
2023/01/04 08:20:21;;;;;;;67.55;11.18;;;10.70;99.90;;;;;;4906146;29;20246;-85
2023/01/04 08:22:46;;;;;;;66.63;10.07;;;10.70;99.90;;;;;;4906440;29;20197;-85
2023/01/04 08:25:13;;;;;;;67.47;11.50;;;10.70;99.90;;;;;;4888694;29;20173;-85
2023/01/04 08:27:40;;;;;;;66.32;12.30;;;10.70;99.90;;;;;;4904704;29;20189;-85
2023/01/04 08:30:07;;;;;;;68.13;13.00;;;10.70;99.90;;;;;;4905669;29;20182;-85
2023/01/04 08:32:32;;;;;;;67.70;11.98;;;10.80;99.90;;;;;;4905837;29;20673;-86
2023/01/04 08:34:58;;;;;;;68.60;12.83;;;10.70;99.90;;;;;;4889534;29;20226;-85
2023/01/04 08:37:24;;;;;;;67.50;12.80;;;10.80;99.90;;;;;;4905414;29;20170;-85
2023/01/04 08:39:49;;;;;;;66.77;13.10;;;10.80;99.90;;;;;;4905947;29;20209;-85
2023/01/04 08:42:16;;;;;;;66.87;11.87;;;10.80;99.90;;;;;;4889220;29;20297;-85
2023/01/04 08:44:41;;;;;;;66.78;12.40;;;10.80;99.90;;;;;;4905588;29;20181;-85
2023/01/04 08:47:07;;;;;;;67.67;15.10;;;10.80;99.90;;;;;;4888736;29;20173;-85
2023/01/04 08:49:33;;;;;;;66.40;11.27;;;10.90;99.90;;;;;;4905993;29;20225;-85
2023/01/04 08:51:58;;;;;;;66.10;11.60;;;10.90;99.90;;;;;;4889072;29;20229;-85
2023/01/04 08:54:24;;;;;;;66.97;14.20;;;10.90;99.90;;;;;;4888303;29;20178;-85
2023/01/04 08:56:50;;;;;;;66.50;12.57;;;10.90;99.90;;;;;;4888419;29;20265;-85
2023/01/04 08:59:15;;;;;;;67.60;13.50;;;10.90;99.90;;;;;;4887769;29;20612;-85
2023/01/04 09:01:41;;;;;;;67.27;11.70;;;11.00;99.90;;;;;;4888167;29;20197;-85
2023/01/04 09:04:07;;;;;;;66.10;11.53;;;11.00;99.90;;;;;;4905767;29;20177;-85
2023/01/04 09:06:33;;;;;;;66.67;12.90;;;11.00;99.90;;;;;;4888207;29;20166;-85
2023/01/04 09:08:59;;;;;;;66.83;12.20;;;11.00;99.90;;;;;;4888907;29;20410;-85
2023/01/04 09:11:25;;;;;;;66.67;13.50;;;11.00;99.90;;;;;;4888775;29;20442;-85
2023/01/04 09:13:59;;;;;;;65.93;11.32;;;11.00;99.90;;;;;;4905302;29;20225;-85
2023/01/04 09:16:25;;;;;;;67.10;14.55;;;11.10;99.90;;;;;;4905364;29;20630;-85
2023/01/04 09:18:51;;;;;;;67.23;14.20;;;11.10;99.90;;;;;;4905081;29;20166;-85
2023/01/04 09:21:18;;;;;;;66.17;11.20;;;11.10;99.90;;;;;;4905362;29;20457;-85
2023/01/04 09:23:45;;;;;;;66.10;11.52;;;11.10;99.90;;;;;;4905611;29;20181;-85
2023/01/04 09:26:14;;;;;;;71.82;11.60;;;11.20;99.90;;;;;;4904986;29;20166;-85
2023/01/04 09:28:40;;;;;;;66.30;11.90;;;11.20;99.90;;;;;;4888428;29;20178;-85
2023/01/04 09:31:15;;;;;;;69.20;20.33;;;11.20;99.90;;;;;;4904965;29;20261;-85
2023/01/04 09:33:43;;;;;;;66.70;12.35;;;11.20;99.90;;;;;;4904921;29;20212;-85
2023/01/04 09:36:12;;;;;;;66.25;11.00;;;11.30;99.90;;;;;;4887845;29;20173;-86
2023/01/04 09:38:38;;;;;;;66.70;12.20;;;11.30;99.90;;;;;;4888136;29;20177;-85
2023/01/04 09:41:12;;;;;;;65.20;10.50;;;11.40;99.90;;;;;;4905162;29;20214;-85
2023/01/04 09:44:05;;;;;;;66.63;13.68;;;11.40;99.90;;;;;;4888779;29;20632;-85
2023/01/04 09:46:54;;;;;;;65.72;11.65;;;11.40;99.90;;;;;;4890651;29;20167;-85
2023/01/04 09:49:28;;;;;;;67.70;10.50;;;11.40;99.90;;;;;;4887968;29;20173;-85
2023/01/04 09:52:02;;;;;;;66.38;12.55;;;11.40;99.90;;;;;;4905267;29;20189;-85
2023/01/04 09:55:01;;;;;;;66.85;11.38;;;11.50;99.90;;;;;;4886809;29;20667;-85
2023/01/04 09:57:35;;;;;;;67.10;10.05;;;11.50;99.90;;;;;;4903763;29;20158;-85
2023/01/04 10:00:24;;;;;;;66.25;11.57;;;11.50;99.90;;;;;;4904424;29;20197;-85
2023/01/04 10:03:10;;;;;;;65.95;10.23;;;11.50;99.90;;;;;;4904798;29;20175;-85
2023/01/04 10:05:39;;;;;;;70.05;17.88;;;11.50;99.90;;;;;;4904642;29;20202;-85
2023/01/04 10:08:16;;;;;;;66.72;12.25;;;11.50;99.90;;;;;;4904653;29;20256;-85
2023/01/04 10:10:51;;;;;;;69.00;17.58;;;11.50;99.90;;;;;;4887244;29;20217;-85
2023/01/04 10:13:19;;;;;;;66.75;12.30;;;11.50;99.90;;;;;;4904564;29;20158;-85
2023/01/04 10:16:07;;;;;;;67.10;14.07;;;11.60;99.90;;;;;;4903770;29;20161;-85
2023/01/04 10:19:01;;;;;;;67.10;8.27;;;11.60;99.90;;;;;;4903607;29;20248;-85
2023/01/04 10:21:54;;;;;;;66.85;12.27;;;11.60;99.90;;;;;;4903506;29;20190;-85
2023/01/04 10:24:44;;;;;;;66.30;12.13;;;11.60;99.90;;;;;;4904091;29;20182;-84
2023/01/04 10:27:36;;;;;;;66.47;9.82;;;11.70;99.90;;;;;;4903876;29;20158;-86
2023/01/04 10:30:24;;;;;;;67.28;13.35;;;11.70;99.90;;;;;;4886741;29;20280;-84
2023/01/04 10:33:01;;;;;;;67.25;10.15;;;11.70;99.90;;;;;;4903532;29;20181;-85
2023/01/04 10:35:31;;;;;;;66.32;10.38;;;11.70;99.90;;;;;;4886620;29;20195;-85
2023/01/04 10:37:59;;;;;;;67.68;10.25;;;11.80;99.90;;;;;;4887212;29;20523;-85
2023/01/04 10:40:28;;;;;;;65.38;9.07;;;11.80;99.90;;;;;;4922369;23;20229;-85
2023/01/04 10:43:09;;;;;;;66.63;12.60;;;11.70;99.90;;;;;;4900656;29;20284;-85
2023/01/04 10:46:06;;;;;;;65.88;9.70;;;11.70;99.90;;;;;;4918844;29;20165;-85
2023/01/04 10:49:18;;;;;;;;;;;;;;;;;;;;;
2023/01/04 10:52:45;;;;;;;65.35;8.50;;;11.50;99.90;;;;;;4903523;29;20154;-85
2023/01/04 10:55:36;;;;;;;70.10;10.07;;;11.40;99.90;;;;;;4847577;29;20251;-85
2023/01/04 10:58:16;;;;;;;67.80;9.27;;;11.40;99.90;;;;;;4879677;29;20189;-85
2023/01/04 11:00:55;;;;;;;65.82;7.53;;;11.30;99.90;;;;;;4905650;29;20185;-85
2023/01/04 11:03:50;;;;;;;68.65;10.55;;;11.40;99.90;;;;;;4906329;29;20160;-85
2023/01/04 11:06:30;;;;;;;67.40;10.48;;;11.30;99.90;;;;;;4888206;29;20185;-85
2023/01/04 11:09:03;;;;;;;66.85;10.98;;;11.20;99.90;;;;;;4906451;29;20653;-85
2023/01/04 11:11:36;;;;;;;67.40;11.57;;;11.30;99.90;;;;;;4906117;29;20197;-85
2023/01/04 11:14:03;;;;;;;67.80;10.95;;;11.20;99.90;;;;;;4906094;29;20190;-85
2023/01/04 11:16:29;;;;;;;73.30;14.30;;;11.20;99.90;;;;;;4889858;29;20217;-85
2023/01/04 11:18:58;;;;;;;72.00;15.52;;;11.20;99.90;;;;;;4889624;29;20225;-85
2023/01/04 11:21:31;;;;;;;67.40;9.05;;;11.10;99.90;;;;;;4907538;29;20225;-85
2023/01/04 11:24:03;;;;;;;68.45;12.98;;;11.20;99.90;;;;;;4890212;29;20676;-85
2023/01/04 11:26:34;;;;;;;68.20;11.98;;;11.20;99.90;;;;;;4906005;29;20615;-85
2023/01/04 11:29:04;;;;;;;68.47;13.45;;;11.20;99.90;;;;;;4889360;29;20188;-85
2023/01/04 11:31:56;;;;;;;69.53;12.88;;;11.20;99.90;;;;;;4905324;29;20190;-85
2023/01/04 11:35:13;;;;;;;67.53;7.93;;;11.20;99.90;;;;;;4906154;29;20233;-85
2023/01/04 11:37:40;;;;;;;67.28;10.48;;;11.40;99.90;;;;;;4907000;29;20209;-85
2023/01/04 11:40:10;;;;;;;71.45;14.32;;;11.30;99.90;;;;;;4889546;29;20622;-85
2023/01/04 11:42:36;;;;;;;68.60;12.70;;;11.40;99.90;;;;;;4907302;29;20245;-85
2023/01/04 11:45:02;;;;;;;67.32;9.82;;;11.40;99.90;;;;;;4889283;29;20170;-85
2023/01/04 11:47:28;;;;;;;65.72;7.75;;;11.40;99.90;;;;;;4905877;29;20217;-85
2023/01/04 11:49:54;;;;;;;66.57;10.03;;;11.50;99.90;;;;;;4906174;29;20213;-85
2023/01/04 11:52:35;;;;;;;65.13;6.97;;;11.50;99.90;;;;;;4906816;29;20203;-85
2023/01/04 11:55:24;;;;;;;65.80;8.38;;;11.60;99.90;;;;;;4905960;29;20183;-85
2023/01/04 11:58:10;;;;;;;66.10;8.45;;;11.50;99.90;;;;;;4906582;29;20515;-85
2023/01/04 12:00:36;;;;;;;67.13;5.75;;;11.70;99.90;;;;;;4892009;29;20241;-85
2023/01/04 12:03:14;;;;;;;65.03;6.00;;;11.70;99.90;;;;;;4905719;29;20186;-85
2023/01/04 12:05:40;;;;;;;64.90;5.20;;;11.70;99.90;;;;;;4905155;29;20714;-85
2023/01/04 12:08:10;;;;;;;65.50;6.95;;;11.80;99.90;;;;;;4886881;29;20642;-85
2023/01/04 12:11:23;;;;;;;65.57;6.13;;;11.90;99.90;;;;;;4902350;29;20296;-86
2023/01/04 12:13:38;;;;;;;67.93;5.78;;;12.00;99.90;;;;;;4901595;29;20229;-85
2023/01/04 12:16:17;;;;;;;66.03;5.43;;;12.10;99.90;;;;;;4902330;29;20201;-85
2023/01/04 12:18:44;;;;;;;64.90;6.47;;;12.10;99.90;;;;;;4886633;29;20174;-86
2023/01/04 12:21:23;;;;;;;66.00;7.10;;;12.20;99.90;;;;;;4885467;29;20284;-86
2023/01/04 12:23:50;;;;;;;65.40;8.18;;;12.30;99.90;;;;;;4902151;29;20158;-86
2023/01/04 12:26:17;;;;;;;67.90;8.88;;;12.30;99.90;;;;;;4903125;29;20178;-85
2023/01/04 12:28:46;;;;;;;66.03;8.85;;;12.40;99.90;;;;;;4903412;29;20166;-85
2023/01/04 12:31:18;;;;;;;66.03;9.25;;;12.40;99.90;;;;;;4885308;29;20285;-85
2023/01/04 12:33:45;;;;;;;66.28;8.90;;;12.40;99.90;;;;;;4903705;29;20166;-85
2023/01/04 12:36:13;;;;;;;65.78;9.80;;;12.40;99.90;;;;;;4885347;29;20178;-85
2023/01/04 12:39:15;;;;;;;69.10;10.23;;;12.50;99.90;;;;;;4902333;29;20253;-85
2023/01/04 12:41:40;;;;;;;65.05;8.45;;;12.50;99.90;;;;;;4883083;29;20261;-86
2023/01/04 12:44:46;;;;;;;65.17;9.10;;;12.50;99.90;;;;;;4901885;29;20166;-85
2023/01/04 12:50:17;;;;;;;66.45;7.88;;;12.70;99.90;;;;;;4901237;29;20258;-85
2023/01/04 12:52:50;;;;;;;64.78;6.93;;;12.70;99.90;;;;;;4902850;29;20226;-85
2023/01/04 12:55:30;;;;;;;67.43;8.40;;;12.70;99.90;;;;;;4902016;29;20158;-86
2023/01/04 12:57:57;;;;;;;64.90;7.85;;;12.70;99.90;;;;;;4901679;29;20220;-85
2023/01/04 13:00:43;;;;;;;66.18;9.35;;;12.70;99.90;;;;;;4901065;29;20229;-86
2023/01/04 13:03:15;;;;;;;65.55;6.97;;;12.70;99.90;;;;;;4901310;29;20575;-85
2023/01/04 13:05:54;;;;;;;64.00;5.60;;;12.80;99.90;;;;;;4902046;29;20172;-85
2023/01/04 13:08:20;;;;;;;64.50;7.93;;;12.80;99.90;;;;;;4901788;29;20526;-85
2023/01/04 13:10:48;;;;;;;64.27;5.97;;;12.90;99.90;;;;;;4901833;29;20190;-85
2023/01/04 13:13:32;;;;;;;64.35;6.20;;;13.00;99.90;;;;;;4901757;29;20166;-85
2023/01/04 13:16:18;;;;;;;64.43;5.97;;;13.00;99.90;;;;;;4902273;29;20146;-85
2023/01/04 13:18:50;;;;;;;64.68;7.38;;;13.10;99.90;;;;;;4901268;29;20165;-85
2023/01/04 13:21:41;;;;;;;64.68;7.05;;;13.10;99.90;;;;;;4900627;29;20182;-85
2023/01/04 13:24:33;;;;;;;65.55;7.22;;;13.10;99.90;;;;;;4900203;29;20154;-85
2023/01/04 13:27:07;;;;;;;64.70;7.93;;;13.20;99.90;;;;;;4900343;29;20151;-85
2023/01/04 13:29:34;;;;;;;64.50;7.60;;;13.20;99.90;;;;;;4900078;29;20185;-85
2023/01/04 13:32:22;;;;;;;67.30;8.48;;;13.30;99.90;;;;;;4900316;29;20170;-86
2023/01/04 13:35:00;;;;;;;64.28;7.03;;;13.30;99.90;;;;;;4900233;29;20629;-86
2023/01/04 13:37:30;;;;;;;67.55;6.72;;;13.30;99.90;;;;;;4882714;29;20166;-86
2023/01/04 13:40:15;;;;;;;64.88;7.18;;;13.30;99.90;;;;;;4900061;29;20738;-86
2023/01/04 13:42:45;;;;;;;64.32;7.03;;;13.20;99.90;;;;;;4899327;29;20182;-86
2023/01/04 13:45:46;;;;;;;64.15;5.88;;;13.20;99.90;;;;;;4899348;29;20169;-86
2023/01/04 13:48:16;;;;;;;67.22;5.75;;;13.20;99.90;;;;;;4899785;29;20241;-87
2023/01/04 13:50:48;;;;;;;64.63;5.72;;;13.20;99.90;;;;;;4898868;29;20194;-86
2023/01/04 13:53:20;;;;;;;64.57;7.28;;;13.20;99.90;;;;;;5042796;23;20233;-87